Terminal Aerodrome Forecast
Issued by NWS

Home | Current Version | Previous Version | Text Only | Print | Product List | Glossary On
Versions: 1 2 3 4 5 6 7 8 9 10 11 12 13 14 15 16 17
000
FTAK31 PAJN 241606 AAA
TAFAWG
TAF AMD
PAWG 241606Z 2416/2512 30003KT 6SM BR SCT005 OVC015
      TEMPO 2416/2417 1SM BR OVC007
     FM241700 30005KT P6SM FEW010 OVC020
     FM242000 30006KT P6SM FEW020 SCT040
      AMD LTD TO CLD VIS AND WIND 2506/2512=

USA.gov is the U.S. government's official web portal to all federal, state and local government web resources and services.